createdAt,value
2018-07-30T00:01:22.506Z,23.24
2018-07-30T00:03:51.017Z,23.18
2018-07-30T00:06:19.769Z,23.13
2018-07-30T00:08:48.241Z,23.07
2018-07-30T00:11:16.717Z,23.01
2018-07-30T00:13:45.485Z,22.95
2018-07-30T00:16:13.912Z,22.92
2018-07-30T00:18:42.358Z,22.89
2018-07-30T00:21:10.929Z,22.86
2018-07-30T00:23:39.613Z,22.83
2018-07-30T00:26:08.153Z,22.81
2018-07-30T00:28:36.701Z,22.80
2018-07-30T00:31:05.143Z,22.77
2018-07-30T00:33:33.609Z,22.78
2018-07-30T00:36:03.135Z,22.75
2018-07-30T00:38:31.581Z,22.71
2018-07-30T00:41:00.316Z,22.69
2018-07-30T00:43:29.153Z,22.65
2018-07-30T00:45:57.587Z,22.65
2018-07-30T00:48:26.127Z,22.66
2018-07-30T00:53:22.661Z,22.63
2018-07-30T00:58:19.705Z,22.63
2018-07-30T01:00:51.124Z,22.63
2018-07-30T01:03:19.585Z,22.60
2018-07-30T01:05:48.138Z,22.59
2018-07-30T01:08:16.577Z,22.59
2018-07-30T01:10:45.041Z,22.56
2018-07-30T01:13:13.584Z,22.56
2018-07-30T01:15:42.553Z,22.57
2018-07-30T01:18:11.235Z,22.57
2018-07-30T01:20:40.392Z,22.56
2018-07-30T01:23:09.462Z,22.55
2018-07-30T01:25:38.317Z,22.55
2018-07-30T01:28:07.309Z,22.55
2018-07-30T01:30:35.757Z,22.55
2018-07-30T01:33:04.350Z,22.57
2018-07-30T01:35:33.395Z,22.58
2018-07-30T01:38:01.978Z,22.58
2018-07-30T01:40:30.442Z,22.60
2018-07-30T01:42:59.483Z,22.61
2018-07-30T01:45:27.962Z,22.65
2018-07-30T01:47:56.437Z,22.68
2018-07-30T01:50:25.123Z,22.71
2018-07-30T01:52:53.579Z,22.74
2018-07-30T01:55:22.118Z,22.78
2018-07-30T01:57:50.877Z,22.82
2018-07-30T02:00:19.333Z,22.80
2018-07-30T02:02:47.793Z,22.81
2018-07-30T02:05:16.977Z,22.81
2018-07-30T02:07:45.548Z,22.83
2018-07-30T02:10:13.986Z,22.86
2018-07-30T02:12:43.037Z,22.89
2018-07-30T02:15:14.494Z,22.90
2018-07-30T02:17:42.962Z,22.91
2018-07-30T02:20:11.919Z,22.92
2018-07-30T02:22:40.369Z,22.95
2018-07-30T02:25:09.433Z,22.97
2018-07-30T02:27:38.275Z,22.98
2018-07-30T02:30:07.998Z,22.96
2018-07-30T02:32:36.838Z,22.93
2018-07-30T02:35:07.657Z,22.93
2018-07-30T02:37:36.250Z,22.92
2018-07-30T02:40:05.529Z,22.97
2018-07-30T02:42:34.994Z,22.97
2018-07-30T02:45:03.629Z,22.98
2018-07-30T02:47:32.149Z,22.95
2018-07-30T02:50:01.359Z,22.91
2018-07-30T02:52:29.865Z,22.89
2018-07-30T02:54:58.397Z,22.86
2018-07-30T02:57:27.431Z,22.85
2018-07-30T02:59:55.985Z,22.82
2018-07-30T03:02:24.458Z,22.79
2018-07-30T03:04:53.417Z,22.75
2018-07-30T03:07:21.857Z,22.73
2018-07-30T03:09:50.371Z,22.70
2018-07-30T03:12:19.527Z,22.67
2018-07-30T03:14:48.047Z,22.66
2018-07-30T03:17:16.794Z,22.66
2018-07-30T03:19:45.835Z,22.67
2018-07-30T03:22:14.409Z,22.67
2018-07-30T03:24:42.892Z,22.70
2018-07-30T03:27:11.561Z,22.69
2018-07-30T03:29:40.105Z,22.68
2018-07-30T03:32:08.585Z,22.67
2018-07-30T03:34:38.261Z,22.66
2018-07-30T03:37:06.710Z,22.66
2018-07-30T03:39:35.297Z,22.63
2018-07-30T03:42:04.366Z,22.63
2018-07-30T03:44:32.944Z,22.63
2018-07-30T03:47:01.433Z,22.68
2018-07-30T03:49:30.089Z,22.70
2018-07-30T03:51:58.682Z,22.72
2018-07-30T03:54:27.229Z,22.72
2018-07-30T03:56:55.855Z,22.75
2018-07-30T03:59:24.594Z,22.79
2018-07-30T04:01:53.074Z,22.81
2018-07-30T04:04:22.169Z,22.85
2018-07-30T04:06:50.692Z,22.88
2018-07-30T04:09:19.206Z,21.62
2018-07-30T04:11:47.861Z,22.91
2018-07-30T04:14:16.345Z,22.93
2018-07-30T04:16:50.220Z,22.94
2018-07-30T04:19:19.209Z,22.96
2018-07-30T04:21:47.777Z,22.99
2018-07-30T04:24:16.577Z,23.02
2018-07-30T04:26:46.334Z,23.05
2018-07-30T04:29:15.505Z,23.08
2018-07-30T04:31:44.578Z,23.10
2018-07-30T04:34:13.045Z,23.10
2018-07-30T04:36:41.491Z,23.13
2018-07-30T04:39:13.448Z,23.17
2018-07-30T04:41:42.417Z,23.20
2018-07-30T04:44:10.915Z,23.24
2018-07-30T04:46:39.578Z,23.29
2018-07-30T04:49:08.043Z,23.34
2018-07-30T04:51:37.132Z,23.41
2018-07-30T04:54:06.281Z,23.47
2018-07-30T04:56:35.068Z,23.55
2018-07-30T04:59:04.071Z,23.60
2018-07-30T05:01:33.357Z,23.66
2018-07-30T05:04:01.818Z,23.74
2018-07-30T05:06:30.286Z,23.81
2018-07-30T05:08:58.914Z,23.86
2018-07-30T05:11:27.388Z,23.94
2018-07-30T05:13:55.833Z,24.02
2018-07-30T05:16:24.795Z,24.07
2018-07-30T05:18:53.264Z,24.12
2018-07-30T05:21:21.721Z,24.15
2018-07-30T05:23:50.635Z,24.14
2018-07-30T05:26:19.061Z,24.13
2018-07-30T05:28:47.510Z,24.12
2018-07-30T05:31:16.305Z,24.17
2018-07-30T05:33:44.777Z,24.25
2018-07-30T05:36:13.315Z,24.36
2018-07-30T05:38:42.102Z,24.43
2018-07-30T05:41:10.551Z,24.52
2018-07-30T05:43:39.001Z,24.50
2018-07-30T05:46:07.763Z,24.74
2018-07-30T05:48:36.207Z,24.88
2018-07-30T05:51:04.684Z,24.99
2018-07-30T05:53:33.480Z,25.11
2018-07-30T05:56:01.909Z,25.24
2018-07-30T05:58:30.365Z,25.40
2018-07-30T06:00:59.678Z,25.52
2018-07-30T06:03:28.957Z,25.55
2018-07-30T06:05:57.398Z,25.63
2018-07-30T06:08:26.327Z,25.73
2018-07-30T06:10:54.785Z,25.88
2018-07-30T06:13:23.294Z,26.01
2018-07-30T06:15:51.949Z,26.07
2018-07-30T06:18:20.417Z,26.08
2018-07-30T06:20:49.039Z,26.06
2018-07-30T06:23:18.131Z,26.09
2018-07-30T06:25:46.599Z,26.16
2018-07-30T06:28:15.070Z,26.25
2018-07-30T06:30:43.820Z,26.27
2018-07-30T06:33:12.370Z,26.33
2018-07-30T06:35:41.034Z,26.29
2018-07-30T06:38:09.883Z,26.21
2018-07-30T06:40:38.364Z,26.22
2018-07-30T06:43:06.804Z,26.26
2018-07-30T06:45:35.646Z,26.36
2018-07-30T06:48:04.171Z,26.51
2018-07-30T06:50:32.601Z,26.65
2018-07-30T06:53:01.390Z,26.79
2018-07-30T06:55:30.817Z,26.97
2018-07-30T06:58:00.161Z,27.21
2018-07-30T07:00:30.369Z,27.41
2018-07-30T07:02:58.869Z,27.59
2018-07-30T07:05:27.851Z,27.72
2018-07-30T07:07:56.623Z,27.75
2018-07-30T07:10:25.185Z,27.61
2018-07-30T07:12:53.687Z,27.56
2018-07-30T07:15:22.326Z,27.48
2018-07-30T07:17:50.831Z,27.43
2018-07-30T07:20:19.431Z,27.39
2018-07-30T07:22:48.324Z,27.37
2018-07-30T07:25:16.858Z,27.35
2018-07-30T07:27:45.584Z,27.38
2018-07-30T07:30:14.785Z,27.44
2018-07-30T07:32:43.545Z,27.45
2018-07-30T07:35:12.670Z,27.49
2018-07-30T07:37:41.893Z,27.52
2018-07-30T07:40:10.402Z,27.56
2018-07-30T07:42:38.907Z,27.59
2018-07-30T07:45:08.172Z,27.62
2018-07-30T07:47:37.343Z,27.59
2018-07-30T07:50:06.448Z,27.55
2018-07-30T07:52:35.237Z,27.53
2018-07-30T07:55:04.665Z,27.53
2018-07-30T07:57:34.212Z,27.62
2018-07-30T08:00:03.566Z,27.72
2018-07-30T08:02:32.098Z,27.83
2018-07-30T08:05:01.472Z,27.93
2018-07-30T08:07:30.537Z,28.05
2018-07-30T08:09:58.985Z,28.15
2018-07-30T08:12:27.434Z,28.24
2018-07-30T08:14:56.624Z,28.34
2018-07-30T08:17:25.065Z,28.49
2018-07-30T08:19:53.542Z,28.72
2018-07-30T08:22:22.574Z,29.04
2018-07-30T08:24:51.022Z,29.26
2018-07-30T08:27:19.486Z,29.36
2018-07-30T08:29:48.458Z,29.41
2018-07-30T08:32:17.321Z,29.45
2018-07-30T08:34:45.802Z,29.42
2018-07-30T08:37:15.077Z,29.43
2018-07-30T08:39:43.533Z,29.50
2018-07-30T08:42:12.058Z,29.57
2018-07-30T08:44:41.123Z,29.70
2018-07-30T08:47:09.868Z,29.80
2018-07-30T08:49:38.682Z,29.93
2018-07-30T08:52:07.798Z,30.09
2018-07-30T08:54:36.373Z,30.22
2018-07-30T08:57:04.908Z,30.31
2018-07-30T08:59:33.855Z,30.42
2018-07-30T09:02:02.415Z,30.39
2018-07-30T09:04:30.897Z,30.50
2018-07-30T09:06:59.561Z,30.63
2018-07-30T09:09:28.011Z,30.68
2018-07-30T09:11:56.489Z,30.81
2018-07-30T09:14:25.134Z,30.93
2018-07-30T09:16:53.588Z,31.12
2018-07-30T09:19:22.126Z,31.24
2018-07-30T09:21:51.401Z,31.37
2018-07-30T09:24:19.840Z,31.34
2018-07-30T09:26:48.345Z,31.58
2018-07-30T09:29:17.165Z,31.93
2018-07-30T09:31:45.615Z,32.08
2018-07-30T09:34:14.083Z,32.12
2018-07-30T09:36:43.212Z,32.30
2018-07-30T09:39:12.659Z,32.49
2018-07-30T09:41:41.157Z,32.71
2018-07-30T09:44:10.497Z,32.83
2018-07-30T09:46:38.941Z,32.93
2018-07-30T09:49:07.465Z,33.04
2018-07-30T09:51:37.165Z,33.22
2018-07-30T09:54:06.351Z,33.39
2018-07-30T09:56:35.107Z,33.43
2018-07-30T09:59:03.809Z,33.40
2018-07-30T10:01:32.241Z,33.23
2018-07-30T10:04:01.317Z,33.11
2018-07-30T10:06:30.331Z,32.98
2018-07-30T10:08:58.873Z,32.73
2018-07-30T10:11:27.607Z,32.46
2018-07-30T10:13:56.208Z,32.28
2018-07-30T10:16:24.673Z,32.19
2018-07-30T10:18:53.242Z,32.25
2018-07-30T10:21:22.008Z,32.73
2018-07-30T10:23:50.476Z,33.07
2018-07-30T10:26:18.923Z,33.28
2018-07-30T10:28:48.068Z,33.61
2018-07-30T10:31:16.645Z,33.90
2018-07-30T10:33:45.086Z,33.66
2018-07-30T10:36:13.809Z,33.57
2018-07-30T10:38:42.385Z,33.46
2018-07-30T10:41:10.932Z,33.37
2018-07-30T10:43:39.923Z,33.53
2018-07-30T10:46:09.093Z,33.88
2018-07-30T10:48:37.560Z,34.26
2018-07-30T10:51:06.225Z,34.51
2018-07-30T10:53:34.975Z,35.12
2018-07-30T10:56:03.496Z,35.70
2018-07-30T10:58:32.589Z,36.07
2018-07-30T11:01:01.108Z,36.22
2018-07-30T11:03:30.134Z,36.27
2018-07-30T11:05:58.757Z,35.98
2018-07-30T11:08:27.458Z,35.55
2018-07-30T11:10:55.983Z,35.02
2018-07-30T11:13:24.861Z,34.72
2018-07-30T11:15:53.450Z,34.85
2018-07-30T11:18:22.246Z,34.97
2018-07-30T11:20:51.377Z,35.14
2018-07-30T11:23:19.897Z,35.11
2018-07-30T11:25:48.396Z,35.22
2018-07-30T11:28:17.142Z,35.23
2018-07-30T11:30:46.221Z,35.30
2018-07-30T11:33:14.894Z,35.83
2018-07-30T11:35:43.796Z,36.11
2018-07-30T11:38:12.261Z,36.08
2018-07-30T11:40:40.804Z,35.93
2018-07-30T11:43:09.601Z,36.11
2018-07-30T11:45:38.105Z,36.64
2018-07-30T11:48:06.642Z,36.47
2018-07-30T11:50:35.361Z,36.04
2018-07-30T11:53:03.876Z,35.62
2018-07-30T11:55:32.337Z,34.97
2018-07-30T11:58:01.646Z,34.51
2018-07-30T12:00:30.613Z,34.16
2018-07-30T12:02:59.053Z,33.90
2018-07-30T12:05:27.689Z,33.59
2018-07-30T12:07:56.329Z,33.33
2018-07-30T12:10:24.832Z,33.34
2018-07-30T12:12:54.073Z,33.84
2018-07-30T12:15:22.529Z,34.37
2018-07-30T12:17:51.072Z,34.66
2018-07-30T12:20:20.166Z,34.79
2018-07-30T12:22:48.972Z,35.50
2018-07-30T12:25:17.439Z,35.84
2018-07-30T12:27:46.120Z,35.90
2018-07-30T12:30:14.764Z,36.33
2018-07-30T12:32:43.189Z,36.36
2018-07-30T12:35:12.619Z,36.12
2018-07-30T12:37:41.161Z,36.13
2018-07-30T12:40:09.605Z,36.02
2018-07-30T12:42:38.463Z,35.79
2018-07-30T12:45:07.048Z,35.34
2018-07-30T12:47:35.521Z,34.77
2018-07-30T12:50:04.476Z,33.90
2018-07-30T12:52:33.097Z,33.36
2018-07-30T12:55:01.525Z,33.05
2018-07-30T12:57:30.467Z,32.82
2018-07-30T12:59:58.947Z,32.56
2018-07-30T13:02:27.427Z,32.41
2018-07-30T13:04:56.998Z,32.37
2018-07-30T13:07:25.465Z,32.31
2018-07-30T13:09:54.161Z,32.37
2018-07-30T13:12:23.132Z,32.87
2018-07-30T13:14:51.598Z,33.15
2018-07-30T13:17:20.053Z,33.42
2018-07-30T13:19:48.725Z,33.50
2018-07-30T13:22:17.213Z,33.48
2018-07-30T13:24:45.725Z,33.32
2018-07-30T13:27:14.384Z,33.20
2018-07-30T13:29:42.887Z,33.27
2018-07-30T13:32:11.449Z,33.32
2018-07-30T13:34:40.389Z,33.10
2018-07-30T13:37:08.849Z,32.80
2018-07-30T13:39:37.385Z,32.55
2018-07-30T13:42:06.190Z,32.42
2018-07-30T13:44:34.694Z,32.19
2018-07-30T13:47:03.236Z,32.15
2018-07-30T13:49:31.909Z,32.11
2018-07-30T13:52:00.335Z,32.02
2018-07-30T13:54:30.055Z,32.07
2018-07-30T13:56:59.838Z,31.96
2018-07-30T13:59:28.316Z,31.84
2018-07-30T14:01:56.873Z,31.77
2018-07-30T14:04:25.469Z,32.01
2018-07-30T14:06:53.990Z,32.67
2018-07-30T14:09:22.937Z,32.98
2018-07-30T14:11:51.471Z,32.96
2018-07-30T14:14:20.090Z,32.77
2018-07-30T14:16:48.561Z,32.67
2018-07-30T14:19:17.387Z,33.29
2018-07-30T14:21:45.819Z,33.34
2018-07-30T14:24:14.445Z,33.09
2018-07-30T14:26:43.386Z,32.87
2018-07-30T14:29:11.899Z,32.63
2018-07-30T14:31:40.513Z,32.02
2018-07-30T14:34:09.077Z,31.48
2018-07-30T14:36:37.625Z,31.14
2018-07-30T14:39:08.677Z,30.70
2018-07-30T14:41:38.020Z,30.42
2018-07-30T14:44:06.641Z,30.31
2018-07-30T14:46:36.100Z,30.26
2018-07-30T14:49:04.775Z,30.09
2018-07-30T14:51:33.283Z,30.04
2018-07-30T14:54:02.175Z,30.13
2018-07-30T14:56:30.993Z,30.37
2018-07-30T14:58:59.939Z,30.69
2018-07-30T15:01:28.525Z,30.80
2018-07-30T15:03:57.039Z,30.91
2018-07-30T15:06:25.565Z,30.96
2018-07-30T15:08:55.513Z,30.90
2018-07-30T15:11:24.112Z,29.87
2018-07-30T15:13:52.690Z,30.21
2018-07-30T15:16:22.107Z,30.08
2018-07-30T15:18:50.628Z,29.89
2018-07-30T15:21:19.114Z,29.80
2018-07-30T15:23:47.842Z,29.70
2018-07-30T15:26:16.810Z,29.63
2018-07-30T15:28:45.278Z,29.46
2018-07-30T15:31:13.881Z,29.29
2018-07-30T15:33:42.414Z,29.14
2018-07-30T15:36:10.871Z,29.06
2018-07-30T15:38:39.622Z,29.09
2018-07-30T15:41:08.246Z,29.18
2018-07-30T15:43:36.698Z,29.22
2018-07-30T15:46:05.277Z,29.20
2018-07-30T15:48:34.670Z,29.22
2018-07-30T15:51:03.491Z,29.27
2018-07-30T15:53:32.123Z,29.26
2018-07-30T15:56:01.925Z,29.31
2018-07-30T15:58:30.492Z,29.26
2018-07-30T16:00:59.020Z,29.28
2018-07-30T16:03:27.947Z,29.27
2018-07-30T16:05:56.529Z,29.23
2018-07-30T16:08:25.497Z,29.22
2018-07-30T16:10:55.296Z,29.23
2018-07-30T16:13:23.893Z,29.12
2018-07-30T16:15:52.433Z,28.99
2018-07-30T16:18:20.997Z,28.87
2018-07-30T16:20:49.530Z,28.85
2018-07-30T16:23:18.083Z,28.84
2018-07-30T16:25:46.590Z,28.81
2018-07-30T16:28:15.049Z,28.59
2018-07-30T16:30:44.726Z,28.38
2018-07-30T16:33:13.259Z,28.19
2018-07-30T16:35:43.474Z,28.07
2018-07-30T16:38:12.654Z,28.01
2018-07-30T16:40:41.363Z,28.04
2018-07-30T16:43:09.858Z,28.08
2018-07-30T16:45:38.481Z,28.13
2018-07-30T16:48:07.730Z,28.12
2018-07-30T16:50:36.317Z,28.09
2018-07-30T16:53:04.841Z,28.10
2018-07-30T16:55:34.029Z,28.09
2018-07-30T16:58:02.508Z,28.06
2018-07-30T17:00:31.537Z,27.99
2018-07-30T17:03:01.007Z,28.00
2018-07-30T17:05:29.565Z,28.03
2018-07-30T17:07:58.027Z,28.02
2018-07-30T17:10:26.817Z,28.03
2018-07-30T17:12:55.613Z,27.95
2018-07-30T17:15:24.193Z,27.83
2018-07-30T17:17:53.463Z,27.79
2018-07-30T17:20:22.076Z,27.75
2018-07-30T17:22:50.501Z,27.71
2018-07-30T17:25:19.236Z,27.67
2018-07-30T17:27:47.729Z,27.64
2018-07-30T17:30:16.902Z,27.60
2018-07-30T17:32:46.155Z,27.53
2018-07-30T17:35:14.713Z,27.44
2018-07-30T17:37:43.185Z,27.35
2018-07-30T17:40:12.256Z,27.24
2018-07-30T17:42:40.739Z,27.16
2018-07-30T17:45:12.113Z,27.11
2018-07-30T17:47:40.921Z,27.01
2018-07-30T17:50:10.035Z,26.94
2018-07-30T17:52:45.471Z,26.89
2018-07-30T17:55:15.858Z,26.85
2018-07-30T17:57:44.309Z,26.82
2018-07-30T18:00:13.119Z,26.72
2018-07-30T18:02:41.889Z,26.66
2018-07-30T18:05:10.345Z,26.60
2018-07-30T18:07:48.379Z,26.53
2018-07-30T18:10:16.921Z,26.50
2018-07-30T18:12:46.169Z,26.49
2018-07-30T18:15:17.622Z,26.42
2018-07-30T18:17:46.945Z,26.38
2018-07-30T18:20:15.595Z,26.37
2018-07-30T18:22:44.592Z,26.33
2018-07-30T18:25:13.106Z,26.28
2018-07-30T18:27:41.560Z,26.27
2018-07-30T18:30:10.497Z,26.20
2018-07-30T18:32:39.281Z,26.17
2018-07-30T18:35:08.944Z,26.17
2018-07-30T18:37:38.090Z,26.16
2018-07-30T18:40:06.592Z,26.12
2018-07-30T18:42:35.070Z,26.09
2018-07-30T18:45:04.455Z,26.03
2018-07-30T18:47:32.970Z,25.98
2018-07-30T18:50:01.409Z,25.95
2018-07-30T18:52:31.428Z,25.90
2018-07-30T18:55:00.953Z,25.84
2018-07-30T18:57:29.487Z,25.79
2018-07-30T18:59:58.101Z,25.73
2018-07-30T19:02:26.600Z,25.71
2018-07-30T19:04:55.073Z,25.65
2018-07-30T19:07:23.941Z,25.66
2018-07-30T19:09:52.430Z,25.61
2018-07-30T19:12:20.908Z,25.54
2018-07-30T19:14:49.595Z,25.53
2018-07-30T19:17:18.061Z,25.49
2018-07-30T19:19:46.921Z,25.40
2018-07-30T19:22:15.460Z,25.34
2018-07-30T19:24:44.871Z,25.30
2018-07-30T19:27:13.339Z,25.29
2018-07-30T19:29:42.031Z,25.28
2018-07-30T19:32:10.774Z,25.23
2018-07-30T19:34:39.238Z,25.26
2018-07-30T19:37:08.131Z,25.23
2018-07-30T19:39:36.613Z,25.19
2018-07-30T19:42:05.127Z,25.16
2018-07-30T19:44:34.007Z,25.16
2018-07-30T19:47:02.665Z,25.13
2018-07-30T19:49:31.092Z,25.12
2018-07-30T19:52:00.490Z,25.11
2018-07-30T19:54:29.733Z,25.13
2018-07-30T19:56:59.026Z,25.11
2018-07-30T19:59:27.678Z,25.15
2018-07-30T20:01:56.201Z,25.15
2018-07-30T20:04:24.710Z,25.15
2018-07-30T20:06:53.692Z,25.16
2018-07-30T20:09:22.220Z,25.16
2018-07-30T20:11:50.766Z,25.16
2018-07-30T20:14:19.889Z,25.16
2018-07-30T20:16:48.383Z,25.15
2018-07-30T20:19:17.797Z,25.17
2018-07-30T20:21:46.861Z,25.17
2018-07-30T20:24:15.367Z,25.05
2018-07-30T20:26:43.816Z,25.02
2018-07-30T20:29:12.612Z,24.97
2018-07-30T20:31:41.252Z,24.94
2018-07-30T20:34:09.718Z,24.92
2018-07-30T20:36:38.730Z,24.94
2018-07-30T20:39:11.347Z,24.95
2018-07-30T20:41:40.410Z,24.96
2018-07-30T20:44:08.895Z,24.96
2018-07-30T20:46:37.709Z,24.93
2018-07-30T20:49:06.866Z,24.92
2018-07-30T20:51:35.341Z,24.92
2018-07-30T20:54:04.237Z,24.93
2018-07-30T20:56:33.373Z,24.89
2018-07-30T20:59:02.332Z,24.84
2018-07-30T21:01:30.782Z,24.76
2018-07-30T21:04:00.357Z,24.71
2018-07-30T21:06:28.997Z,24.69
2018-07-30T21:08:57.606Z,24.71
2018-07-30T21:11:26.964Z,24.70
2018-07-30T21:13:55.429Z,24.67
2018-07-30T21:16:24.257Z,24.65
2018-07-30T21:18:53.075Z,24.63
2018-07-30T21:21:21.926Z,24.63
2018-07-30T21:23:50.533Z,24.62
2018-07-30T21:26:19.752Z,24.60
2018-07-30T21:28:48.270Z,24.54
2018-07-30T21:31:16.776Z,24.51
2018-07-30T21:33:45.809Z,24.48
2018-07-30T21:36:14.353Z,24.49
2018-07-30T21:38:42.811Z,24.47
2018-07-30T21:41:11.873Z,24.45
2018-07-30T21:43:40.375Z,24.44
2018-07-30T21:46:08.901Z,24.43
2018-07-30T21:48:37.809Z,24.44
2018-07-30T21:51:06.839Z,24.43
2018-07-30T21:53:35.499Z,24.44
2018-07-30T21:56:04.283Z,24.44
2018-07-30T21:58:32.917Z,24.43
2018-07-30T22:01:01.487Z,24.44
2018-07-30T22:03:30.945Z,24.41
2018-07-30T22:06:01.233Z,24.38
2018-07-30T22:08:30.621Z,24.33
2018-07-30T22:10:59.526Z,24.33
2018-07-30T22:13:28.025Z,24.33
2018-07-30T22:15:56.460Z,24.32
2018-07-30T22:18:25.217Z,24.27
2018-07-30T22:20:54.370Z,24.24
2018-07-30T22:23:23.107Z,24.23
2018-07-30T22:25:52.392Z,24.22
2018-07-30T22:28:20.881Z,24.22
2018-07-30T22:30:49.359Z,24.21
2018-07-30T22:33:18.923Z,24.18
2018-07-30T22:35:47.465Z,24.19
2018-07-30T22:38:15.909Z,24.21
2018-07-30T22:40:44.925Z,24.20
2018-07-30T22:43:13.451Z,24.18
2018-07-30T22:45:41.938Z,24.16
2018-07-30T22:48:10.677Z,24.13
2018-07-30T22:50:39.165Z,24.12
2018-07-30T22:53:07.641Z,24.08
2018-07-30T22:55:36.938Z,24.06
2018-07-30T22:58:06.018Z,24.04
2018-07-30T23:00:34.836Z,24.02
2018-07-30T23:03:04.013Z,24.02
2018-07-30T23:05:32.508Z,24.01
2018-07-30T23:08:01.387Z,23.99
2018-07-30T23:10:30.158Z,23.98
2018-07-30T23:12:58.713Z,23.99
2018-07-30T23:15:27.623Z,23.98
2018-07-30T23:17:56.470Z,23.96
2018-07-30T23:20:24.934Z,23.93
2018-07-30T23:22:53.385Z,23.91
2018-07-30T23:25:22.490Z,23.92
2018-07-30T23:27:51.121Z,23.89
2018-07-30T23:30:19.611Z,23.79
2018-07-30T23:32:48.549Z,23.76
2018-07-30T23:35:17.067Z,23.71
2018-07-30T23:37:45.617Z,23.67
2018-07-30T23:40:16.190Z,23.67
2018-07-30T23:42:44.677Z,23.62
2018-07-30T23:45:13.126Z,23.58
2018-07-30T23:47:41.934Z,23.54
2018-07-30T23:50:10.510Z,23.52
2018-07-30T23:52:38.949Z,23.47
2018-07-30T23:55:07.998Z,23.49
2018-07-30T23:57:36.497Z,23.47
